Time;durP1;ratioP1;P1;durP2;ratioP2;P2;SDS_P1;SDS_P2;PMS_P1;PMS_P2;Temp;Humidity;BMP_temperature;BMP_pressure;BME280_temperature;BME280_humidity;BME280_pressure;Samples;Min_cycle;Max_cycle;Signal;HPM_P1;HPM_P2
2022/05/23 00:01:39;;;;;;;2.30;1.73;;;;;;;13.28;84.04;100975.00;5037131;28;20033;-84
2022/05/23 00:04:05;;;;;;;4.13;1.90;;;;;;;13.27;84.60;100966.19;5010750;28;20119;-83
2022/05/23 00:06:30;;;;;;;2.28;1.95;;;;;;;13.26;84.86;100967.16;5036967;28;20032;-84
2022/05/23 00:09:14;;;;;;;2.42;1.90;;;;;;;13.25;84.71;100954.78;5035517;28;20538;-84
2022/05/23 00:11:40;;;;;;;2.40;1.77;;;;;;;13.23;85.21;100951.34;5036652;28;20036;-83
2022/05/23 00:14:06;;;;;;;2.63;1.92;;;;;;;13.22;85.23;100954.06;5018549;28;20037;-84
2022/05/23 00:16:34;;;;;;;3.17;1.85;;;;;;;13.22;85.39;100956.75;5019840;28;20045;-81
2022/05/23 00:19:00;;;;;;;2.20;2.00;;;;;;;13.20;85.16;100950.66;5019393;28;20041;-78
2022/05/23 00:21:26;;;;;;;2.63;1.92;;;;;;;13.21;85.08;100947.06;5037729;28;20781;-83
2022/05/23 00:23:52;;;;;;;1.75;1.60;;;;;;;13.22;84.95;100943.44;5019431;28;20106;-85
2022/05/23 00:26:20;;;;;;;2.65;1.90;;;;;;;13.21;85.08;100936.41;5019069;28;20032;-84
2022/05/23 00:28:49;;;;;;;3.65;1.80;;;;;;;13.22;84.73;100932.81;5019266;28;20063;-84
2022/05/23 00:31:15;;;;;;;5.18;1.70;;;;;;;13.21;84.69;100925.78;5010103;28;20068;-83
2022/05/23 00:36:29;;;;;;;3.47;1.83;;;;;;;13.21;84.37;100917.81;5004685;28;20027;-83
2022/05/23 00:38:55;;;;;;;2.10;1.60;;;;;;;13.19;84.33;100920.56;5019387;28;20148;-84
2022/05/23 00:44:28;;;;;;;3.85;1.77;;;;;;;13.16;84.45;100903.00;5018193;28;20029;-85
2022/05/23 00:47:22;;;;;;;3.13;1.95;;;;;;;13.14;85.07;100894.22;4981481;28;20035;-84
2022/05/23 00:49:47;;;;;;;3.80;2.00;;;;;;;13.13;84.52;100886.34;5018292;28;20037;-84
2022/05/23 00:52:27;;;;;;;2.05;1.77;;;;;;;13.11;84.38;100890.88;5018190;28;20040;-83
2022/05/23 00:54:55;;;;;;;4.82;2.10;;;;;;;13.10;84.62;100887.38;5018651;28;20116;-83
2022/05/23 00:57:26;;;;;;;2.00;1.90;;;;;;;13.10;85.12;100882.06;5035970;28;20090;-83
2022/05/23 00:59:52;;;;;;;4.07;2.10;;;;;;;13.08;84.78;100867.97;5035300;28;20467;-83
2022/05/23 01:02:19;;;;;;;3.03;1.77;;;;;;;13.07;84.75;100860.97;5010293;28;20123;-84
2022/05/23 01:04:46;;;;;;;3.55;1.85;;;;;;;13.06;85.03;100863.72;4999288;28;20082;-80
2022/05/23 01:07:12;;;;;;;3.33;2.00;;;;;;;13.06;85.04;100861.06;5034949;28;20032;-84
2022/05/23 01:09:38;;;;;;;1.80;1.70;;;;;;;13.04;85.39;100861.97;5018250;28;20591;-84
2022/05/23 01:12:04;;;;;;;2.53;1.90;;;;;;;13.07;85.25;100857.47;5035801;28;20036;-83
2022/05/23 01:14:53;;;;;;;2.78;1.75;;;;;;;13.07;85.68;100852.97;5014240;28;20177;-85
2022/05/23 01:17:20;;;;;;;3.72;1.70;;;;;;;13.07;85.22;100858.31;5030979;28;20060;-84
2022/05/23 01:19:45;;;;;;;5.90;1.75;;;;;;;13.08;85.11;100857.34;5022967;28;20033;-84
2022/05/23 01:22:31;;;;;;;1.95;1.83;;;;;;;13.10;85.51;100855.50;4997664;28;20673;-83
2022/05/23 01:25:12;;;;;;;2.63;1.80;;;;;;;13.09;85.34;100843.16;5006303;28;20037;-84
2022/05/23 01:27:39;;;;;;;2.33;1.83;;;;;;;13.11;85.37;100845.69;5013892;28;20408;-83
2022/05/23 01:30:05;;;;;;;3.30;1.98;;;;;;;13.10;85.63;100842.19;5014563;28;20021;-83
2022/05/23 01:32:31;;;;;;;4.07;2.03;;;;;;;13.10;85.30;100831.56;5015908;28;20025;-84
2022/05/23 01:34:56;;;;;;;4.63;1.80;;;;;;;13.11;85.23;100830.63;5015633;28;20370;-84
2022/05/23 01:37:22;;;;;;;2.97;1.60;;;;;;;13.11;85.34;100825.31;5016199;28;20750;-84
2022/05/23 01:39:47;;;;;;;2.55;1.90;;;;;;;13.11;85.71;100820.00;4997542;28;20037;-85
2022/05/23 01:42:13;;;;;;;2.53;1.65;;;;;;;13.12;85.46;100826.16;5014167;28;20037;-84
2022/05/23 01:44:38;;;;;;;1.70;1.60;;;;;;;13.15;85.73;100821.53;5014977;28;20600;-85
2022/05/23 01:47:12;;;;;;;2.88;1.70;;;;;;;13.14;85.60;100825.13;5015290;28;20655;-83
2022/05/23 01:49:39;;;;;;;2.72;1.88;;;;;;;13.16;85.31;100828.56;5013532;28;20037;-83
2022/05/23 01:52:07;;;;;;;2.72;1.85;;;;;;;13.16;85.47;100820.59;5013651;28;20038;-83
2022/05/23 01:54:34;;;;;;;3.47;1.67;;;;;;;13.17;85.40;100824.97;4992643;28;20041;-83
2022/05/23 01:57:00;;;;;;;1.95;1.52;;;;;;;13.17;85.79;100819.66;5014428;28;20041;-83
2022/05/23 02:02:10;;;;;;;2.53;1.77;;;;;;;13.16;85.37;100809.09;5010999;28;20605;-85
2022/05/23 02:04:36;;;;;;;4.47;1.80;;;;;;;13.16;85.35;100796.66;5029313;28;21566;-83
2022/05/23 02:07:02;;;;;;;1.75;1.63;;;;;;;13.16;85.33;100794.00;5013223;28;20041;-85
2022/05/23 02:09:28;;;;;;;1.90;1.52;;;;;;;13.15;85.38;100792.31;5021367;28;20124;-83
2022/05/23 02:11:54;;;;;;;2.88;1.63;;;;;;;13.15;85.29;100794.09;5013439;28;20100;-83
2022/05/23 02:14:20;;;;;;;4.65;1.77;;;;;;;13.13;85.55;100796.81;4995125;28;20161;-83
2022/05/23 02:16:45;;;;;;;1.63;1.45;;;;;;;13.11;85.53;100801.38;5034581;28;20494;-86
2022/05/23 02:19:11;;;;;;;3.55;1.58;;;;;;;13.09;85.31;100803.28;5034295;28;20040;-83
2022/05/23 02:21:36;;;;;;;3.15;1.85;;;;;;;13.07;85.28;100801.66;5015911;28;20114;-85
2022/05/23 02:24:05;;;;;;;3.92;1.88;;;;;;;13.02;85.85;100804.56;5033265;28;20028;-83
2022/05/23 02:26:31;;;;;;;1.92;1.73;;;;;;;13.00;85.72;100795.81;5035411;28;20041;-84
2022/05/23 02:28:57;;;;;;;2.10;1.90;;;;;;;12.96;85.68;100781.84;5016798;28;20040;-84
2022/05/23 02:31:23;;;;;;;4.30;1.80;;;;;;;12.93;85.34;100783.81;5010417;28;20029;-85
2022/05/23 02:33:49;;;;;;;2.00;1.83;;;;;;;12.92;85.78;100785.63;5007442;28;20086;-84
2022/05/23 02:36:14;;;;;;;2.55;1.98;;;;;;;12.87;85.62;100771.75;5034348;28;20049;-84
2022/05/23 02:38:41;;;;;;;3.03;1.55;;;;;;;12.83;85.39;100768.41;5034326;28;20025;-86
2022/05/23 02:41:07;;;;;;;1.85;1.75;;;;;;;12.81;86.07;100770.25;5000118;28;20099;-85
2022/05/23 02:43:32;;;;;;;1.80;1.70;;;;;;;12.76;86.26;100762.56;5016283;28;20052;-82
2022/05/23 02:45:57;;;;;;;2.63;1.98;;;;;;;12.73;86.23;100769.84;5016357;28;20068;-84
2022/05/23 02:48:23;;;;;;;2.45;1.80;;;;;;;12.70;85.94;100764.72;5034187;28;20037;-85
2022/05/23 02:50:49;;;;;;;2.35;1.70;;;;;;;12.66;86.19;100758.72;5022640;28;20029;-85
2022/05/23 02:53:14;;;;;;;2.13;1.73;;;;;;;12.61;86.32;100753.66;5016062;28;20483;-85
2022/05/23 02:55:42;;;;;;;1.85;1.70;;;;;;;12.57;86.22;100752.13;5034276;28;20136;-84
2022/05/23 02:58:07;;;;;;;4.07;1.77;;;;;;;12.52;87.16;100748.84;5034335;28;20422;-85
2022/05/23 03:00:34;;;;;;;3.03;1.92;;;;;;;12.50;87.35;100740.13;5016630;28;20099;-84
2022/05/23 03:03:02;;;;;;;5.95;1.95;;;;;;;12.48;87.40;100734.88;5017018;28;20038;-84
2022/05/23 03:05:35;;;;;;;2.88;2.08;;;;;;;12.45;87.30;100742.16;5017381;28;20123;-84
2022/05/23 03:08:01;;;;;;;2.35;1.98;;;;;;;12.41;87.38;100737.97;5016932;28;20029;-84
2022/05/23 03:10:26;;;;;;;3.22;1.98;;;;;;;12.40;87.59;100736.25;5015468;28;20380;-84
2022/05/23 03:12:52;;;;;;;2.55;2.13;;;;;;;12.35;87.59;100737.38;5031768;28;20648;-85
2022/05/23 03:15:18;;;;;;;2.80;1.92;;;;;;;12.36;87.49;100738.22;5012897;28;20526;-84
2022/05/23 03:17:43;;;;;;;4.18;2.03;;;;;;;12.32;88.01;100729.56;5017815;28;20541;-85
2022/05/23 03:20:10;;;;;;;2.33;1.80;;;;;;;12.32;87.78;100734.03;5016170;28;20490;-85
2022/05/23 03:28:04;;;;;;;2.63;2.13;;;;;;;12.29;88.03;100729.75;5017450;28;20079;-84
2022/05/23 03:30:30;;;;;;;6.05;2.00;;;;;;;12.28;88.19;100728.03;5032835;28;20113;-83
2022/05/23 03:32:58;;;;;;;2.20;2.00;;;;;;;12.27;88.21;100728.09;5016303;28;21554;-85
2022/05/23 03:35:29;;;;;;;3.03;1.77;;;;;;;12.25;88.30;100725.53;5017791;28;20037;-85
2022/05/23 03:37:55;;;;;;;2.72;1.90;;;;;;;12.24;88.16;100720.31;5010568;28;20539;-84
2022/05/23 03:40:21;;;;;;;2.58;2.05;;;;;;;12.22;87.95;100718.59;5016372;28;20039;-84
2022/05/23 03:42:46;;;;;;;2.05;1.88;;;;;;;12.22;87.99;100720.41;5017646;28;20973;-85
2022/05/23 03:45:12;;;;;;;2.17;1.90;;;;;;;12.21;87.92;100708.06;5014568;28;20144;-83
2022/05/23 03:47:38;;;;;;;2.72;1.80;;;;;;;12.22;88.21;100707.13;4999678;28;20033;-82
2022/05/23 03:50:05;;;;;;;4.63;2.03;;;;;;;12.22;88.28;100704.47;5033301;28;20038;-85
2022/05/23 03:52:30;;;;;;;3.45;1.95;;;;;;;12.21;88.32;100702.78;5016234;28;21399;-84
2022/05/23 03:54:56;;;;;;;3.85;1.95;;;;;;;12.19;88.50;100692.22;5032625;28;20154;-83
2022/05/23 03:57:23;;;;;;;2.15;1.92;;;;;;;12.20;88.76;100687.78;5032048;28;20049;-84
2022/05/23 03:59:49;;;;;;;2.17;2.00;;;;;;;12.18;88.69;100687.88;5016824;28;20030;-83
2022/05/23 04:02:15;;;;;;;2.30;1.73;;;;;;;12.16;88.50;100679.09;5031825;28;20044;-84
2022/05/23 04:04:40;;;;;;;4.32;2.10;;;;;;;12.18;88.39;100685.22;5015738;28;20037;-85
2022/05/23 04:07:06;;;;;;;2.17;1.75;;;;;;;12.17;88.61;100669.38;5015540;28;20034;-85
2022/05/23 04:09:34;;;;;;;2.35;1.90;;;;;;;12.17;88.63;100661.41;5031573;28;21491;-83
2022/05/23 04:12:00;;;;;;;2.60;1.98;;;;;;;12.19;89.01;100657.72;5014610;28;20041;-85
2022/05/23 04:14:26;;;;;;;3.55;1.85;;;;;;;12.21;88.95;100652.34;5034209;28;20052;-84
2022/05/23 04:16:52;;;;;;;1.98;1.75;;;;;;;12.22;88.79;100651.41;5017857;28;20468;-86
2022/05/23 04:19:18;;;;;;;2.50;2.10;;;;;;;12.22;88.61;100651.41;4999929;28;20029;-85
2022/05/23 04:21:45;;;;;;;2.63;2.10;;;;;;;12.21;88.46;100634.59;5017854;28;20038;-85
2022/05/23 04:24:11;;;;;;;2.10;1.90;;;;;;;12.25;88.45;100639.75;5001490;28;20074;-85
2022/05/23 04:26:37;;;;;;;5.13;2.28;;;;;;;12.25;88.57;100637.94;5018031;28;20557;-84
2022/05/23 04:29:04;;;;;;;2.97;2.03;;;;;;;12.27;88.79;100628.13;5036421;28;20029;-85
2022/05/23 04:31:30;;;;;;;2.10;1.90;;;;;;;12.30;88.96;100625.28;5017964;28;20479;-84
2022/05/23 04:36:39;;;;;;;3.15;2.20;;;;;;;12.35;89.25;100614.38;5035860;28;20104;-83
2022/05/23 04:39:05;;;;;;;2.20;1.98;;;;;;;12.37;88.96;100612.53;5036018;28;20037;-86
2022/05/23 04:41:30;;;;;;;3.65;2.10;;;;;;;12.36;89.27;100601.03;5009824;28;20033;-84
2022/05/23 04:43:56;;;;;;;3.03;2.22;;;;;;;12.39;88.88;100600.00;5017993;28;20396;-84
2022/05/23 04:46:22;;;;;;;2.45;2.00;;;;;;;12.40;89.05;100600.84;5017382;28;20032;-84
2022/05/23 04:51:31;;;;;;;4.32;2.35;;;;;;;12.44;88.73;100583.81;5020689;28;20029;-85
2022/05/23 04:53:57;;;;;;;2.08;1.85;;;;;;;12.45;89.01;100580.22;5008392;28;20523;-83
2022/05/23 04:56:24;;;;;;;2.55;2.05;;;;;;;12.49;89.17;100576.44;5008774;28;20033;-82
2022/05/23 04:58:50;;;;;;;4.57;2.17;;;;;;;12.50;89.04;100570.19;5033847;28;20031;-84
2022/05/23 05:01:16;;;;;;;3.60;2.25;;;;;;;12.51;88.66;100569.25;5037211;28;20029;-83
2022/05/23 05:03:42;;;;;;;4.60;2.35;;;;;;;12.55;89.08;100568.13;5019497;28;20395;-82
2022/05/23 05:06:08;;;;;;;4.32;2.10;;;;;;;12.57;89.27;100555.59;5017762;28;20114;-84
2022/05/23 05:08:33;;;;;;;3.03;2.08;;;;;;;12.57;89.59;100549.44;5035492;28;20120;-84
2022/05/23 05:10:59;;;;;;;3.92;2.20;;;;;;;12.60;89.38;100555.41;5017055;28;20130;-83
2022/05/23 05:13:25;;;;;;;2.85;1.90;;;;;;;12.61;89.37;100558.94;5016202;28;20048;-83
2022/05/23 05:15:51;;;;;;;2.47;2.15;;;;;;;12.61;89.38;100553.63;5032478;28;20059;-85
2022/05/23 05:18:20;;;;;;;3.13;2.38;;;;;;;12.60;89.35;100552.75;5035547;28;20037;-86
2022/05/23 05:20:46;;;;;;;3.00;2.20;;;;;;;12.61;89.31;100551.84;5017488;28;20619;-83
2022/05/23 05:23:12;;;;;;;4.13;2.33;;;;;;;12.62;89.33;100550.88;5035128;28;20033;-83
2022/05/23 05:25:41;;;;;;;2.55;2.22;;;;;;;12.62;89.12;100552.69;5017312;28;20338;-84
2022/05/23 05:28:07;;;;;;;3.55;2.55;;;;;;;12.69;89.73;100547.88;5016815;28;20033;-83
2022/05/23 05:30:39;;;;;;;2.30;2.10;;;;;;;12.75;89.34;100551.00;5016878;28;21118;-84
2022/05/23 05:33:13;;;;;;;4.28;2.42;;;;;;;12.82;89.88;100540.88;5007458;28;20037;-84
2022/05/23 05:35:52;;;;;;;3.13;2.40;;;;;;;12.87;89.90;100545.91;5016864;28;20032;-84
2022/05/23 05:38:23;;;;;;;5.60;2.65;;;;;;;12.93;89.70;100539.38;4996604;28;20029;-84
2022/05/23 05:40:53;;;;;;;2.78;2.50;;;;;;;12.99;89.24;100531.91;5034174;28;20036;-84
2022/05/23 05:43:25;;;;;;;2.88;2.60;;;;;;;13.09;89.53;100526.00;5034225;28;20097;-82
2022/05/23 05:45:54;;;;;;;3.20;2.33;;;;;;;13.21;89.14;100527.06;5016847;28;20037;-84
2022/05/23 05:48:20;;;;;;;3.08;2.60;;;;;;;13.36;89.59;100512.84;5034667;28;20041;-84
2022/05/23 05:50:47;;;;;;;2.95;2.40;;;;;;;13.54;88.95;100502.88;4999465;28;20071;-85
2022/05/23 05:53:17;;;;;;;2.33;2.13;;;;;;;13.68;88.37;100504.63;5015324;28;20040;-84
2022/05/23 05:55:43;;;;;;;3.00;2.25;;;;;;;13.85;88.14;100490.25;5034730;28;20091;-83
2022/05/23 05:58:09;;;;;;;3.88;2.58;;;;;;;14.02;87.84;100485.63;5011421;28;20132;-84
2022/05/23 06:00:34;;;;;;;3.30;2.40;;;;;;;14.16;86.76;100495.34;5016400;28;20021;-84
2022/05/23 06:03:00;;;;;;;2.47;2.22;;;;;;;14.31;87.08;100490.84;5034654;28;20119;-82
2022/05/23 06:05:25;;;;;;;4.95;2.30;;;;;;;14.50;86.45;100490.44;5016833;28;20041;-83
2022/05/23 06:13:22;;;;;;;2.70;2.50;;;;;;;15.05;85.55;100484.94;5019233;28;20036;-85
2022/05/23 06:15:47;;;;;;;2.78;2.28;;;;;;;15.19;84.87;100477.78;5016356;28;20087;-83
2022/05/23 06:18:13;;;;;;;4.18;2.60;;;;;;;15.28;84.79;100474.50;5014313;28;20534;-84
2022/05/23 06:20:39;;;;;;;3.63;2.47;;;;;;;15.39;84.15;100471.06;5033142;28;20059;-81
2022/05/23 06:23:05;;;;;;;3.05;2.47;;;;;;;15.47;84.00;100473.16;5032847;28;20051;-84
2022/05/23 06:25:31;;;;;;;3.35;2.92;;;;;;;15.55;83.86;100469.94;5032323;28;20029;-83
2022/05/23 06:27:56;;;;;;;3.30;2.30;;;;;;;15.61;83.68;100465.03;5032156;28;20468;-84
2022/05/23 06:30:22;;;;;;;2.97;2.47;;;;;;;15.65;83.53;100468.31;5015660;28;20024;-83
2022/05/23 06:32:48;;;;;;;3.33;2.90;;;;;;;15.69;83.61;100464.44;5014175;28;20033;-83
2022/05/23 06:35:15;;;;;;;2.78;2.58;;;;;;;15.79;83.64;100461.13;5015880;28;20676;-83
2022/05/23 06:37:42;;;;;;;4.50;2.60;;;;;;;15.91;83.66;100470.03;5015887;28;20076;-82
2022/05/23 06:40:10;;;;;;;4.00;2.60;;;;;;;16.02;83.18;100480.81;5007490;28;21845;-86
2022/05/23 06:42:36;;;;;;;3.08;2.40;;;;;;;16.11;83.05;100474.75;5015971;28;20399;-82
2022/05/23 06:45:03;;;;;;;2.70;2.50;;;;;;;16.22;83.00;100465.06;5032967;28;21520;-82
2022/05/23 06:47:31;;;;;;;3.95;2.70;;;;;;;16.41;83.10;100468.06;5033675;28;20102;-83
2022/05/23 06:49:56;;;;;;;2.90;2.47;;;;;;;16.56;82.92;100466.03;5016115;28;20570;-82
2022/05/23 06:52:22;;;;;;;3.45;2.53;;;;;;;16.64;82.27;100465.47;5019957;28;20479;-80
2022/05/23 06:54:48;;;;;;;3.58;2.55;;;;;;;16.73;82.08;100465.72;5018151;28;20044;-77
2022/05/23 06:57:13;;;;;;;3.25;2.55;;;;;;;16.75;81.65;100453.94;5025442;28;20123;-81
2022/05/23 06:59:39;;;;;;;4.38;2.65;;;;;;;16.73;81.14;100452.34;5030407;28;20348;-84
2022/05/23 07:02:07;;;;;;;2.78;2.38;;;;;;;16.74;81.58;100446.03;5037656;28;20037;-81
2022/05/23 07:12:57;;;;;;;3.95;2.70;;;;;;;16.90;81.83;100438.53;5036962;28;20041;-82
2022/05/23 07:15:24;;;;;;;3.42;2.70;;;;;;;16.96;81.08;100429.16;5002699;28;20053;-82
2022/05/23 07:17:50;;;;;;;3.53;2.47;;;;;;;17.07;81.81;100431.00;5035987;28;20088;-82
2022/05/23 07:20:16;;;;;;;2.55;2.33;;;;;;;17.15;81.12;100425.88;5018824;28;20263;-81
2022/05/23 07:22:42;;;;;;;4.95;3.00;;;;;;;17.21;80.34;100421.91;5036136;28;20037;-84
2022/05/23 07:25:07;;;;;;;5.50;3.25;;;;;;;17.30;80.56;100430.97;5036107;28;20036;-81
2022/05/23 07:27:33;;;;;;;4.13;2.78;;;;;;;17.47;81.07;100425.13;5036639;28;20040;-82
2022/05/23 07:29:59;;;;;;;5.30;3.15;;;;;;;17.65;80.98;100413.88;5010317;28;20033;-82
2022/05/23 07:32:25;;;;;;;3.17;2.50;;;;;;;17.80;80.89;100410.94;5036318;28;20025;-82
2022/05/23 07:34:51;;;;;;;2.42;2.22;;;;;;;17.90;80.65;100410.03;5016341;28;20082;-82
2022/05/23 07:37:16;;;;;;;4.30;2.45;;;;;;;17.97;80.06;100402.31;5036166;28;20037;-81
2022/05/23 07:39:42;;;;;;;4.00;2.83;;;;;;;18.02;79.70;100397.44;5018179;28;20476;-83
2022/05/23 07:42:09;;;;;;;4.15;2.75;;;;;;;18.09;79.32;100399.63;5025989;28;20028;-82
2022/05/23 07:44:36;;;;;;;3.72;2.70;;;;;;;18.16;78.67;100395.44;5017533;28;20134;-80
2022/05/23 07:47:03;;;;;;;3.33;2.83;;;;;;;18.32;78.13;100389.63;5009894;28;20028;-82
2022/05/23 07:49:28;;;;;;;4.63;2.67;;;;;;;18.45;77.44;100386.72;5017550;28;20653;-81
2022/05/23 07:51:56;;;;;;;2.90;2.53;;;;;;;18.61;77.32;100388.09;5017658;28;20037;-82
2022/05/23 08:02:35;;;;;;;4.25;2.65;;;;;;;18.85;76.43;100369.84;5039222;28;20391;-79
2022/05/23 08:05:01;;;;;;;3.42;2.50;;;;;;;18.95;76.00;100359.16;5033569;28;20037;-79
2022/05/23 08:07:28;;;;;;;4.63;3.00;;;;;;;19.02;75.87;100354.16;5020944;28;20052;-80
2022/05/23 08:09:55;;;;;;;3.15;2.70;;;;;;;19.13;76.54;100351.31;5017548;28;20170;-79
2022/05/23 08:12:21;;;;;;;5.13;3.10;;;;;;;19.21;76.09;100347.09;5036936;28;20074;-79
2022/05/23 08:14:47;;;;;;;3.60;2.78;;;;;;;19.25;75.64;100346.72;5018842;28;20077;-81
2022/05/23 08:17:12;;;;;;;4.47;3.20;;;;;;;19.23;76.10;100334.41;5020229;28;20143;-82
2022/05/23 08:19:38;;;;;;;3.40;2.58;;;;;;;19.21;75.60;100331.00;5042325;28;20320;-79
2022/05/23 08:22:05;;;;;;;3.28;2.80;;;;;;;19.21;76.23;100325.63;4997470;28;21213;-79
2022/05/23 08:24:30;;;;;;;3.72;2.75;;;;;;;19.24;76.16;100325.38;5034750;28;20025;-80
2022/05/23 08:26:56;;;;;;;4.22;2.70;;;;;;;19.25;76.05;100321.69;5031973;28;20051;-80
2022/05/23 08:29:21;;;;;;;4.03;2.72;;;;;;;19.32;76.01;100320.16;5012234;28;20124;-81
2022/05/23 08:31:48;;;;;;;4.60;3.05;;;;;;;19.50;76.07;100320.28;5017106;28;20037;-82
2022/05/23 08:34:13;;;;;;;4.07;2.72;;;;;;;19.64;75.31;100305.63;5016632;28;20056;-81
2022/05/23 08:36:39;;;;;;;4.25;2.80;;;;;;;19.79;75.21;100305.19;5034987;28;20391;-82
2022/05/23 08:39:05;;;;;;;4.00;3.00;;;;;;;19.89;74.92;100308.69;5034832;28;20040;-82
2022/05/23 08:41:37;;;;;;;2.67;2.47;;;;;;;19.89;73.08;100303.31;5034297;28;20467;-82
2022/05/23 08:44:11;;;;;;;4.13;2.55;;;;;;;19.88;73.20;100301.63;5033483;28;20555;-80
2022/05/23 08:46:53;;;;;;;3.50;2.83;;;;;;;19.93;72.96;100288.59;5034868;28;20208;-82
2022/05/23 08:49:40;;;;;;;4.53;3.30;;;;;;;20.02;72.86;100292.31;5033990;28;20099;-80
2022/05/23 08:52:07;;;;;;;4.03;2.97;;;;;;;20.15;73.59;100285.78;5016053;28;20048;-82
2022/05/23 08:55:03;;;;;;;7.05;3.08;;;;;;;20.29;73.28;100276.38;5024716;28;20041;-81
2022/05/23 08:57:35;;;;;;;3.55;2.83;;;;;;;20.35;72.49;100276.66;4998800;28;20307;-82
2022/05/23 09:00:06;;;;;;;6.10;2.85;;;;;;;20.41;73.22;100269.81;5032612;28;20047;-82
2022/05/23 09:02:45;;;;;;;3.75;3.08;;;;;;;20.51;71.58;100268.91;5016296;28;20166;-82
2022/05/23 09:05:32;;;;;;;5.47;3.30;;;;;;;20.62;72.58;100271.41;5033899;28;20116;-82
2022/05/23 09:08:03;;;;;;;4.35;2.85;;;;;;;20.81;73.58;100262.38;5016330;28;20029;-82
2022/05/23 09:10:38;;;;;;;3.97;3.05;;;;;;;20.89;72.52;100257.16;5000936;28;20095;-83
2022/05/23 09:13:07;;;;;;;3.25;2.92;;;;;;;20.96;72.51;100261.94;5034294;28;20059;-82
2022/05/23 09:15:33;;;;;;;3.25;2.95;;;;;;;20.92;72.54;100249.75;5031195;28;20468;-79
2022/05/23 09:18:04;;;;;;;3.97;3.20;;;;;;;20.88;71.84;100254.59;5011184;28;20037;-79
2022/05/23 09:20:43;;;;;;;5.30;3.05;;;;;;;20.91;71.26;100254.28;5033495;28;20059;-79
2022/05/23 09:23:11;;;;;;;3.10;2.72;;;;;;;20.91;72.48;100259.66;5031627;28;20041;-79
2022/05/23 09:25:38;;;;;;;3.00;2.70;;;;;;;20.88;72.42;100249.22;5012451;28;20491;-79
2022/05/23 09:28:13;;;;;;;3.95;3.35;;;;;;;20.89;71.67;100243.69;5033791;28;20665;-78
2022/05/23 09:30:40;;;;;;;3.83;2.75;;;;;;;20.97;71.90;100244.78;5031694;28;20040;-80
2022/05/23 09:33:15;;;;;;;4.15;3.30;;;;;;;21.12;71.29;100245.94;5022998;28;20103;-79
2022/05/23 09:35:55;;;;;;;6.45;3.08;;;;;;;21.27;71.13;100235.47;5014733;28;20068;-78
2022/05/23 09:38:29;;;;;;;5.38;3.15;;;;;;;21.47;71.19;100237.13;5010159;28;20040;-81
2022/05/23 09:40:55;;;;;;;4.18;3.10;;;;;;;21.52;70.11;100230.28;4999786;28;20037;-77
2022/05/23 09:49:12;;;;;;;6.40;3.17;;;;;;;21.71;68.22;100212.28;4989393;28;20116;-76
2022/05/23 09:51:59;;;;;;;4.78;3.03;;;;;;;21.72;67.71;100213.13;5032769;28;20146;-76
2022/05/23 09:54:38;;;;;;;3.30;2.47;;;;;;;21.72;68.47;100205.03;5033079;28;20041;-76
2022/05/23 09:57:18;;;;;;;3.13;2.80;;;;;;;21.82;68.46;100203.06;5033379;28;20021;-78
2022/05/23 09:59:43;;;;;;;5.25;2.92;;;;;;;21.99;68.28;100198.63;5030911;28;20052;-81
2022/05/23 10:02:15;;;;;;;4.57;2.88;;;;;;;22.26;66.83;100199.41;5015371;28;20033;-81
2022/05/23 10:04:44;;;;;;;3.83;2.88;;;;;;;22.52;67.47;100194.00;5015540;28;20082;-81
2022/05/23 10:07:20;;;;;;;3.80;3.20;;;;;;;22.72;65.57;100188.28;5015508;28;20074;-80
2022/05/23 10:09:59;;;;;;;4.82;3.22;;;;;;;22.87;65.67;100188.50;5033189;28;20744;-80
2022/05/23 10:12:25;;;;;;;4.90;3.60;;;;;;;22.97;66.23;100184.78;5015418;28;20028;-80
2022/05/23 10:14:53;;;;;;;4.90;3.65;;;;;;;23.04;66.11;100170.44;5008450;28;20053;-81
2022/05/23 10:17:34;;;;;;;4.35;3.38;;;;;;;23.01;63.68;100169.94;4993498;28;20151;-82
2022/05/23 10:20:32;;;;;;;4.70;3.53;;;;;;;22.98;63.07;100154.09;5015415;28;20079;-82
2022/05/23 10:23:05;;;;;;;3.85;3.00;;;;;;;23.00;64.43;100152.94;5033511;28;20124;-81
2022/05/23 10:25:36;;;;;;;5.65;3.22;;;;;;;23.10;64.52;100152.72;5009542;28;20029;-81
2022/05/23 10:28:08;;;;;;;4.97;3.50;;;;;;;23.22;63.81;100147.00;5015620;28;20025;-81
2022/05/23 10:30:36;;;;;;;4.05;3.30;;;;;;;23.25;63.50;100143.97;5015907;28;20036;-81
2022/05/23 10:33:08;;;;;;;4.97;3.00;;;;;;;23.19;63.03;100131.97;5033254;28;20110;-81
2022/05/23 10:35:38;;;;;;;;;;;;;;;23.14;59.89;100134.34;5015561;28;20946;-82
2022/05/23 10:44:54;;;;;;;4.20;2.90;;;;;;;23.38;61.34;100135.38;5012473;28;20071;-81
2022/05/23 10:47:25;;;;;;;6.20;2.83;;;;;;;23.36;61.10;100124.72;5014214;28;20343;-81
2022/05/23 10:50:03;;;;;;;3.00;2.77;;;;;;;23.42;62.78;100110.53;5032419;28;20025;-82
2022/05/23 10:52:35;;;;;;;3.60;2.63;;;;;;;23.53;63.42;100114.75;5014234;28;20041;-82
2022/05/23 10:55:09;;;;;;;5.60;2.60;;;;;;;23.58;62.25;100103.41;4998201;28;20037;-81
2022/05/23 10:57:50;;;;;;;2.80;2.60;;;;;;;23.51;61.86;100105.13;4997124;28;20033;-79
2022/05/23 11:00:28;;;;;;;3.10;2.63;;;;;;;23.39;60.01;100097.41;5032374;28;21444;-81
2022/05/23 11:03:01;;;;;;;3.88;2.15;;;;;;;23.27;61.60;100087.94;5014720;28;20044;-81
2022/05/23 11:05:32;;;;;;;3.15;2.50;;;;;;;23.19;61.51;100092.34;5030818;28;20342;-82
2022/05/23 11:08:07;;;;;;;3.90;2.13;;;;;;;23.16;61.77;100089.16;5006439;28;20037;-81
2022/05/23 11:10:51;;;;;;;2.40;2.15;;;;;;;23.35;62.38;100079.84;5030779;28;20295;-82
2022/05/23 11:13:35;;;;;;;3.67;2.10;;;;;;;23.62;60.16;100079.63;5030461;28;20499;-82
2022/05/23 11:16:07;;;;;;;5.07;2.50;;;;;;;23.76;60.93;100075.34;5014573;28;21365;-82
2022/05/23 11:18:57;;;;;;;3.10;2.50;;;;;;;23.68;57.18;100066.25;5030939;28;20148;-79
2022/05/23 11:21:38;;;;;;;2.60;2.30;;;;;;;23.56;58.86;100060.38;5014430;28;20147;-79
2022/05/23 11:24:20;;;;;;;2.70;1.95;;;;;;;23.46;59.30;100066.00;5006161;28;20465;-82
2022/05/23 11:26:49;;;;;;;3.50;1.80;;;;;;;23.53;61.20;100057.19;5014372;28;20273;-80
2022/05/23 11:35:07;;;;;;;2.88;1.60;;;;;;;23.71;58.00;100038.03;5031106;28;20091;-80
2022/05/23 11:37:45;;;;;;;2.05;1.88;;;;;;;23.76;59.24;100029.41;5015532;28;20130;-79
2022/05/23 11:40:26;;;;;;;2.28;1.73;;;;;;;23.82;57.05;100036.81;5000730;28;20052;-82
2022/05/23 11:43:01;;;;;;;3.10;2.00;;;;;;;23.83;58.82;100017.72;5034098;28;20333;-82
2022/05/23 11:48:41;;;;;;;2.58;1.58;;;;;;;24.09;55.59;100018.44;5035434;28;20037;-81
2022/05/23 11:51:25;;;;;;;2.97;1.80;;;;;;;24.13;57.56;100020.59;5035663;28;20118;-80
2022/05/23 11:53:57;;;;;;;2.05;1.80;;;;;;;24.16;58.37;100005.88;5034847;28;20045;-81
2022/05/23 11:56:40;;;;;;;1.98;1.48;;;;;;;24.24;57.04;99996.88;5034243;28;20736;-81
2022/05/23 11:59:09;;;;;;;1.38;1.27;;;;;;;24.30;58.47;99998.00;5008730;28;20625;-82
2022/05/23 12:01:35;;;;;;;1.50;1.40;;;;;;;24.36;57.58;99994.59;5032903;28;20025;-80
2022/05/23 12:04:00;;;;;;;1.88;1.45;;;;;;;24.44;56.63;99982.88;5033615;28;20047;-80
2022/05/23 12:06:29;;;;;;;1.73;1.52;;;;;;;24.52;55.53;99972.81;5025673;28;20037;-81
2022/05/23 12:08:58;;;;;;;1.83;1.55;;;;;;;24.56;54.78;99967.88;5034852;28;20129;-80
2022/05/23 12:11:38;;;;;;;2.38;1.60;;;;;;;24.56;54.33;99975.97;5035108;28;20056;-81
2022/05/23 12:14:32;;;;;;;1.63;1.40;;;;;;;24.64;54.97;99975.06;5017056;28;20047;-80
2022/05/23 12:16:58;;;;;;;1.88;1.60;;;;;;;24.69;55.90;99962.66;5006857;28;20045;-81
2022/05/23 12:19:28;;;;;;;1.77;1.50;;;;;;;24.69;54.71;99962.66;5000393;28;20032;-81
2022/05/23 12:22:22;;;;;;;2.78;1.90;;;;;;;24.66;53.56;99963.03;5016374;28;20041;-80
2022/05/23 12:25:07;;;;;;;2.22;1.45;;;;;;;24.56;53.98;99954.34;4998258;28;20069;-80
2022/05/23 12:28:00;;;;;;;1.92;1.50;;;;;;;24.45;55.61;99955.63;5035094;28;21124;-80
2022/05/23 12:30:26;;;;;;;2.97;1.80;;;;;;;24.29;55.49;99951.19;5035400;28;20033;-82
2022/05/23 12:32:58;;;;;;;2.58;1.55;;;;;;;24.14;54.85;99948.47;5034743;28;20037;-81
2022/05/23 12:35:41;;;;;;;1.98;1.63;;;;;;;24.00;54.62;99950.03;5032737;28;20080;-80
2022/05/23 12:38:44;;;;;;;3.22;1.85;;;;;;;23.85;56.54;99936.44;5035214;28;20033;-82
2022/05/23 12:41:29;;;;;;;2.10;1.90;;;;;;;23.72;57.98;99939.75;5034539;28;20194;-81